Time;durP1;ratioP1;P1;durP2;ratioP2;P2;SDS_P1;SDS_P2;PMS_P1;PMS_P2;Temp;Humidity;BMP_temperature;BMP_pressure;BME280_temperature;BME280_humidity;BME280_pressure;Samples;Min_cycle;Max_cycle;Signal;HPM_P1;HPM_P2
2022/02/28 00:01:25;;;;;;;4.07;3.17;;;;;;;0.85;64.61;95770.53;5086227;28;20043;-71
2022/02/28 00:03:51;;;;;;;5.10;2.60;;;;;;;0.80;63.49;95765.59;5086844;28;20413;-71
2022/02/28 00:06:18;;;;;;;3.42;2.45;;;;;;;0.81;63.78;95766.41;5085416;28;20058;-71
2022/02/28 00:08:43;;;;;;;3.40;2.67;;;;;;;0.78;64.31;95766.63;5088350;28;20028;-71
2022/02/28 00:11:08;;;;;;;3.33;2.35;;;;;;;0.79;64.60;95761.22;5084971;28;20016;-71
2022/02/28 00:13:34;;;;;;;3.50;2.70;;;;;;;0.81;64.38;95761.97;5087985;28;20016;-71
2022/02/28 00:15:59;;;;;;;3.22;2.33;;;;;;;0.87;63.77;95758.06;5086821;28;20410;-72
2022/02/28 00:18:25;;;;;;;3.03;2.60;;;;;;;0.78;63.86;95762.19;5086272;28;20032;-70
2022/02/28 00:20:50;;;;;;;2.75;2.20;;;;;;;0.83;63.44;95759.22;5086436;28;20032;-71
2022/02/28 00:23:16;;;;;;;3.17;2.38;;;;;;;0.76;63.54;95758.81;5086551;28;20032;-70
2022/02/28 00:25:41;;;;;;;3.15;2.47;;;;;;;0.83;63.29;95762.72;5087902;28;20028;-71
2022/02/28 00:28:07;;;;;;;3.17;2.65;;;;;;;0.85;63.87;95762.63;5086190;28;20031;-71
2022/02/28 00:30:35;;;;;;;3.40;2.67;;;;;;;0.88;63.72;95756.25;5087581;28;20068;-71
2022/02/28 00:33:01;;;;;;;2.97;2.22;;;;;;;0.87;64.29;95750.16;5086392;28;20081;-71
2022/02/28 00:35:26;;;;;;;4.15;2.92;;;;;;;0.90;63.83;95751.72;5087286;28;20106;-71
2022/02/28 00:37:52;;;;;;;4.07;2.75;;;;;;;0.84;63.94;95743.28;5068615;28;20020;-71
2022/02/28 00:40:17;;;;;;;2.85;2.55;;;;;;;0.88;63.91;95743.06;5086542;28;20391;-71
2022/02/28 00:42:43;;;;;;;3.20;2.55;;;;;;;0.89;63.91;95747.41;5087220;28;20024;-71
2022/02/28 00:45:09;;;;;;;3.35;2.60;;;;;;;0.92;64.29;95741.91;5084616;28;20051;-71
2022/02/28 00:47:34;;;;;;;4.63;2.40;;;;;;;0.94;63.86;95745.25;5069284;28;20024;-71
2022/02/28 00:50:00;;;;;;;3.88;2.83;;;;;;;0.94;64.85;95740.81;5085714;28;20089;-71
2022/02/28 00:52:25;;;;;;;3.28;2.70;;;;;;;1.04;64.28;95735.72;5087220;28;20043;-71
2022/02/28 00:54:50;;;;;;;4.85;2.78;;;;;;;1.06;64.28;95731.19;5086094;28;20093;-71
2022/02/28 00:57:16;;;;;;;3.20;2.40;;;;;;;1.13;64.73;95728.09;5086749;28;20341;-71
2022/02/28 00:59:41;;;;;;;3.38;2.60;;;;;;;1.14;63.86;95733.28;5086348;28;20035;-72
2022/02/28 01:02:07;;;;;;;3.38;2.33;;;;;;;1.15;64.28;95732.31;5084969;28;20110;-71
2022/02/28 01:04:32;;;;;;;4.10;2.90;;;;;;;1.09;63.89;95730.97;5087246;28;20399;-71
2022/02/28 01:06:58;;;;;;;3.50;2.78;;;;;;;1.09;64.79;95725.69;5067307;28;20540;-70
2022/02/28 01:09:23;;;;;;;3.45;2.60;;;;;;;1.13;66.36;95728.09;5086796;28;20016;-70
2022/02/28 01:11:49;;;;;;;5.68;2.80;;;;;;;1.11;66.66;95723.75;5085378;28;20027;-70
2022/02/28 01:14:14;;;;;;;4.95;3.10;;;;;;;1.11;66.01;95722.94;5086828;28;20020;-72
2022/02/28 01:16:39;;;;;;;5.10;3.63;;;;;;;1.07;65.34;95724.09;5084078;28;20016;-71
2022/02/28 01:19:05;;;;;;;3.92;3.33;;;;;;;1.06;65.85;95727.69;5086414;28;20024;-71
2022/02/28 01:21:30;;;;;;;4.00;2.95;;;;;;;1.07;66.17;95722.28;5068127;28;20028;-72
2022/02/28 01:23:56;;;;;;;6.07;3.00;;;;;;;1.09;66.61;95714.25;5085598;28;20027;-71
2022/02/28 01:26:21;;;;;;;4.05;3.25;;;;;;;1.11;65.67;95720.28;5086979;28;20035;-72
2022/02/28 01:28:46;;;;;;;5.28;3.20;;;;;;;1.10;65.36;95710.66;5085046;28;20035;-72
2022/02/28 01:31:12;;;;;;;5.28;3.20;;;;;;;1.15;66.03;95716.44;5085483;28;20076;-72
2022/02/28 01:33:37;;;;;;;4.40;3.28;;;;;;;1.16;65.92;95717.31;5085409;28;20031;-72
2022/02/28 01:36:03;;;;;;;3.65;3.08;;;;;;;1.16;65.85;95704.91;5086580;28;20020;-70
2022/02/28 01:38:28;;;;;;;3.58;3.00;;;;;;;1.17;65.07;95708.41;5084447;28;20024;-71
2022/02/28 01:40:54;;;;;;;4.45;3.13;;;;;;;1.21;64.92;95701.97;5084301;28;20035;-71
2022/02/28 01:43:19;;;;;;;3.47;2.50;;;;;;;1.27;63.59;95708.59;5068507;28;20406;-71
2022/02/28 01:45:45;;;;;;;4.75;2.90;;;;;;;1.31;63.20;95715.31;5084980;28;20032;-70
2022/02/28 01:48:10;;;;;;;3.28;2.50;;;;;;;1.21;62.42;95717.81;5086851;28;20024;-70
2022/02/28 01:50:36;;;;;;;3.30;2.72;;;;;;;1.23;63.58;95714.09;5084933;28;20372;-71
2022/02/28 01:53:02;;;;;;;3.30;2.67;;;;;;;1.20;63.85;95714.31;5086562;28;20161;-70
2022/02/28 01:55:27;;;;;;;3.88;2.70;;;;;;;1.14;63.04;95717.41;5085408;28;20038;-71
2022/02/28 01:57:53;;;;;;;3.72;2.72;;;;;;;1.18;63.32;95704.81;5089773;28;20048;-71
2022/02/28 02:00:24;;;;;;;3.63;2.72;;;;;;;1.06;63.31;95712.69;5088901;28;20032;-72
2022/02/28 02:02:49;;;;;;;3.80;2.83;;;;;;;1.08;62.61;95708.13;5089237;28;20032;-71
2022/02/28 02:05:15;;;;;;;4.00;2.90;;;;;;;1.14;63.41;95713.91;5089222;28;20054;-71
2022/02/28 02:07:40;;;;;;;4.40;2.80;;;;;;;1.19;63.86;95698.59;5088841;28;20527;-71
2022/02/28 02:10:08;;;;;;;3.38;2.45;;;;;;;1.21;62.20;95707.25;5090635;28;20552;-72
2022/02/28 02:12:33;;;;;;;2.97;2.40;;;;;;;1.30;61.77;95703.94;5087672;28;20103;-72
2022/02/28 02:14:59;;;;;;;3.00;2.38;;;;;;;1.30;62.60;95708.38;5071774;28;20024;-72
2022/02/28 02:17:24;;;;;;;3.63;2.60;;;;;;;1.29;61.96;95706.69;5088126;28;20101;-72
2022/02/28 02:19:52;;;;;;;3.88;2.85;;;;;;;1.23;61.87;95707.97;5070972;28;20016;-71
2022/02/28 02:22:20;;;;;;;5.45;2.63;;;;;;;1.18;62.46;95700.38;5090190;28;20028;-71
2022/02/28 02:24:46;;;;;;;3.20;2.33;;;;;;;1.10;61.86;95703.59;5088565;28;20035;-71
2022/02/28 02:27:11;;;;;;;3.83;2.60;;;;;;;1.10;62.94;95708.00;5090279;28;20460;-72
2022/02/28 02:29:37;;;;;;;3.28;2.35;;;;;;;1.19;61.11;95706.50;5088643;28;20501;-71
2022/02/28 02:32:16;;;;;;;2.58;1.90;;;;;;;1.27;61.17;95701.50;5089555;28;20486;-71
2022/02/28 02:34:41;;;;;;;3.40;2.10;;;;;;;1.24;61.52;95701.75;5087797;28;20479;-71
2022/02/28 02:37:07;;;;;;;3.42;1.75;;;;;;;1.19;61.56;95698.59;5087483;28;20036;-70
2022/02/28 02:39:32;;;;;;;2.95;2.20;;;;;;;1.17;61.81;95703.97;5089877;28;20616;-71
2022/02/28 02:41:57;;;;;;;3.08;2.33;;;;;;;1.17;61.57;95692.56;5070217;28;20406;-71
2022/02/28 02:44:30;;;;;;;4.13;2.38;;;;;;;1.19;61.66;95693.31;5090269;28;20031;-71
2022/02/28 02:46:56;;;;;;;3.17;2.30;;;;;;;1.18;62.20;95697.72;5087910;28;20024;-70
2022/02/28 02:49:21;;;;;;;5.38;2.58;;;;;;;1.10;61.40;95697.44;5089563;28;20058;-71
2022/02/28 02:51:47;;;;;;;3.65;2.40;;;;;;;1.10;60.64;95693.00;5088519;28;20506;-72
2022/02/28 02:54:13;;;;;;;4.22;2.55;;;;;;;1.00;60.92;95699.91;5088967;28;20478;-71
2022/02/28 02:56:38;;;;;;;3.40;2.38;;;;;;;1.09;60.55;95701.91;5088968;28;20043;-70
2022/02/28 02:59:04;;;;;;;2.88;2.35;;;;;;;1.02;61.48;95697.16;5086753;28;20337;-71
2022/02/28 03:01:29;;;;;;;4.03;2.17;;;;;;;1.00;62.63;95702.53;5089484;28;20498;-71
2022/02/28 03:03:55;;;;;;;3.38;2.70;;;;;;;0.95;62.14;95697.59;5087635;28;20032;-72
2022/02/28 03:06:20;;;;;;;3.60;2.50;;;;;;;1.03;62.84;95702.31;5089657;28;20096;-71
2022/02/28 03:08:46;;;;;;;3.05;2.05;;;;;;;1.05;63.07;95700.41;5086575;28;20451;-72
2022/02/28 03:11:11;;;;;;;3.85;2.50;;;;;;;1.07;61.94;95701.16;5087348;28;20039;-72
2022/02/28 03:13:37;;;;;;;4.82;3.45;;;;;;;1.04;63.19;95708.47;5088483;28;20031;-72
2022/02/28 03:16:03;;;;;;;4.25;2.50;;;;;;;1.04;62.37;95703.19;5087881;28;20028;-70
2022/02/28 03:18:28;;;;;;;3.20;2.17;;;;;;;1.07;63.29;95701.16;5089091;28;20020;-71
2022/02/28 03:20:53;;;;;;;2.47;1.90;;;;;;;1.14;62.77;95706.00;5086397;28;20093;-71
2022/02/28 03:23:19;;;;;;;3.22;2.08;;;;;;;1.15;62.89;95691.81;5088924;28;20600;-71
2022/02/28 03:25:44;;;;;;;2.53;1.92;;;;;;;1.13;62.44;95697.22;5087412;28;20403;-71
2022/02/28 03:28:10;;;;;;;3.47;2.35;;;;;;;1.07;62.53;95703.81;5070469;28;20016;-71
2022/02/28 03:30:35;;;;;;;5.03;2.10;;;;;;;1.07;62.82;95697.66;5087587;28;20070;-71
2022/02/28 03:33:01;;;;;;;3.63;2.63;;;;;;;1.02;62.29;95702.44;5088350;28;20505;-72
2022/02/28 03:35:26;;;;;;;4.25;2.20;;;;;;;1.11;61.89;95704.44;5088238;28;20340;-72
2022/02/28 03:37:51;;;;;;;3.55;2.17;;;;;;;1.13;63.11;95702.50;5087444;28;20039;-72
2022/02/28 03:40:17;;;;;;;3.95;2.28;;;;;;;1.15;62.12;95705.88;5088627;28;20418;-72
2022/02/28 03:42:42;;;;;;;4.57;2.40;;;;;;;1.13;62.70;95709.59;5087467;28;20506;-71
2022/02/28 03:45:08;;;;;;;5.45;3.30;;;;;;;1.10;61.83;95710.66;5088742;28;20394;-72
2022/02/28 03:47:33;;;;;;;6.80;3.65;;;;;;;1.09;62.33;95712.47;5086625;28;20028;-71
2022/02/28 03:49:59;;;;;;;5.28;3.28;;;;;;;1.08;63.12;95710.75;5087099;28;20031;-72
2022/02/28 03:52:25;;;;;;;6.22;3.40;;;;;;;1.10;62.78;95719.44;5087416;28;20058;-72
2022/02/28 03:54:50;;;;;;;7.15;3.60;;;;;;;1.14;62.46;95716.56;5087820;28;20024;-72
2022/02/28 03:57:16;;;;;;;3.58;2.60;;;;;;;1.16;62.99;95719.94;5086366;28;20468;-71
2022/02/28 03:59:41;;;;;;;4.93;2.92;;;;;;;1.14;63.51;95719.22;5087095;28;20039;-71
2022/02/28 04:02:06;;;;;;;7.95;3.45;;;;;;;1.12;62.15;95716.69;5088316;28;20031;-71
2022/02/28 04:04:32;;;;;;;12.98;9.57;;;;;;;1.18;61.69;95715.38;5085010;28;20043;-71
2022/02/28 04:06:57;;;;;;;25.95;19.58;;;;;;;1.29;62.10;95718.06;5087068;28;20032;-71
2022/02/28 04:09:23;;;;;;;13.57;9.65;;;;;;;1.31;61.84;95721.47;5086433;28;20414;-71
2022/02/28 04:11:48;;;;;;;22.48;17.42;;;;;;;1.34;60.79;95717.75;5087841;28;20050;-71
2022/02/28 04:14:14;;;;;;;7.18;5.85;;;;;;;1.28;62.06;95721.69;5087486;28;20024;-72
2022/02/28 04:16:39;;;;;;;8.15;5.30;;;;;;;1.23;62.28;95716.75;5086689;28;20201;-71
2022/02/28 04:19:05;;;;;;;6.57;3.83;;;;;;;1.26;62.85;95720.94;5087375;28;20031;-71
2022/02/28 04:21:30;;;;;;;4.18;3.00;;;;;;;1.28;62.73;95719.03;5085993;28;20028;-71
2022/02/28 04:23:55;;;;;;;4.68;2.65;;;;;;;1.25;61.88;95729.00;5087950;28;20028;-73
2022/02/28 04:26:21;;;;;;;3.10;2.30;;;;;;;1.19;62.84;95719.72;5086398;28;20039;-71
2022/02/28 04:28:47;;;;;;;4.60;2.63;;;;;;;1.21;61.70;95725.75;5087353;28;20027;-71
2022/02/28 04:31:12;;;;;;;4.00;2.70;;;;;;;1.25;62.48;95721.91;5085166;28;20407;-72
2022/02/28 04:33:38;;;;;;;4.78;2.80;;;;;;;1.25;62.36;95726.34;5086932;28;20535;-72
2022/02/28 04:36:03;;;;;;;5.82;3.20;;;;;;;1.23;62.42;95726.47;5085807;28;20020;-72
2022/02/28 04:38:29;;;;;;;3.40;2.40;;;;;;;1.10;62.08;95723.88;5086143;28;20515;-71
2022/02/28 04:40:54;;;;;;;4.30;2.75;;;;;;;1.16;63.50;95727.88;5087679;28;20027;-71
2022/02/28 04:43:20;;;;;;;3.58;3.05;;;;;;;1.16;62.38;95727.88;5086061;28;20085;-71
2022/02/28 04:45:45;;;;;;;3.25;2.45;;;;;;;1.18;63.07;95726.78;5087444;28;20016;-71
2022/02/28 04:48:11;;;;;;;3.58;2.17;;;;;;;1.20;62.30;95727.53;5086152;28;20078;-71
2022/02/28 04:50:36;;;;;;;5.15;2.70;;;;;;;1.18;63.34;95733.88;5085552;28;20032;-70
2022/02/28 04:53:01;;;;;;;3.13;2.25;;;;;;;1.14;63.16;95729.78;5086603;28;20032;-72
2022/02/28 04:55:27;;;;;;;2.92;2.22;;;;;;;1.15;63.17;95728.81;5086483;28;20100;-71
2022/02/28 04:57:54;;;;;;;3.72;2.40;;;;;;;1.14;63.20;95728.00;5086735;28;20067;-71
2022/02/28 05:00:20;;;;;;;3.15;2.67;;;;;;;1.15;64.13;95731.44;5084523;28;20032;-71
2022/02/28 05:02:45;;;;;;;3.95;3.00;;;;;;;1.13;64.12;95739.50;5087070;28;20028;-72
2022/02/28 05:05:10;;;;;;;5.00;3.42;;;;;;;1.14;63.72;95737.69;5084045;28;20028;-72
2022/02/28 05:07:36;;;;;;;4.28;3.17;;;;;;;1.11;63.91;95736.13;5085447;28;20020;-72
2022/02/28 05:10:01;;;;;;;4.47;3.28;;;;;;;1.11;63.89;95734.31;5084667;28;20031;-72
2022/02/28 05:12:27;;;;;;;4.45;3.00;;;;;;;1.13;63.91;95736.03;5086756;28;20024;-72
2022/02/28 05:14:52;;;;;;;3.42;2.65;;;;;;;1.21;63.20;95738.97;5086364;28;20035;-71
2022/02/28 05:17:17;;;;;;;3.95;2.72;;;;;;;1.29;62.77;95741.88;5086352;28;20035;-72
2022/02/28 05:19:43;;;;;;;3.72;2.42;;;;;;;1.25;63.22;95743.06;5086671;28;20086;-72
2022/02/28 05:22:09;;;;;;;3.47;2.60;;;;;;;1.22;63.95;95743.28;5085159;28;20057;-71
2022/02/28 05:24:34;;;;;;;3.72;2.90;;;;;;;1.13;63.85;95749.22;5085685;28;20028;-71
2022/02/28 05:27:00;;;;;;;3.80;2.58;;;;;;;1.08;64.59;95742.47;5083859;28;20498;-72
2022/02/28 05:29:27;;;;;;;5.60;2.90;;;;;;;1.10;64.85;95747.63;5085365;28;20024;-72
2022/02/28 05:31:53;;;;;;;2.85;2.30;;;;;;;1.26;63.67;95747.38;5083699;28;20105;-72
2022/02/28 05:34:18;;;;;;;3.25;2.50;;;;;;;1.20;63.53;95747.81;5085971;28;20046;-72
2022/02/28 05:36:44;;;;;;;2.63;2.22;;;;;;;1.20;63.64;95750.47;5086055;28;20409;-72
2022/02/28 05:39:09;;;;;;;5.18;2.65;;;;;;;1.15;63.82;95752.59;5085274;28;20626;-71
2022/02/28 05:41:34;;;;;;;4.40;2.75;;;;;;;1.16;62.94;95754.28;5086758;28;20478;-71
2022/02/28 05:44:00;;;;;;;4.63;2.65;;;;;;;1.15;63.57;95749.94;5083592;28;20389;-71
2022/02/28 05:46:25;;;;;;;3.60;2.65;;;;;;;1.26;62.95;95754.47;5086598;28;20032;-71
2022/02/28 05:48:51;;;;;;;3.30;2.42;;;;;;;1.13;64.11;95754.53;5084920;28;20029;-71
2022/02/28 05:51:16;;;;;;;3.28;2.35;;;;;;;1.18;62.93;95760.28;5084846;28;20016;-71
2022/02/28 05:53:42;;;;;;;4.45;2.63;;;;;;;1.16;63.09;95759.59;5086051;28;20465;-71
2022/02/28 05:56:07;;;;;;;5.20;3.40;;;;;;;1.16;63.52;95755.13;5085354;28;20491;-72
2022/02/28 05:58:32;;;;;;;4.78;3.13;;;;;;;1.26;63.25;95750.03;5086286;28;20052;-70
2022/02/28 06:00:58;;;;;;;6.22;3.53;;;;;;;1.26;63.05;95755.31;5084653;28;20101;-71
2022/02/28 06:03:23;;;;;;;5.80;3.92;;;;;;;1.28;63.32;95760.47;5086565;28;20050;-72
2022/02/28 06:05:49;;;;;;;7.03;4.47;;;;;;;1.30;64.17;95770.00;5083159;28;20024;-71
2022/02/28 06:08:14;;;;;;;7.80;5.28;;;;;;;1.25;63.76;95760.69;5086193;28;20414;-71
2022/02/28 06:10:40;;;;;;;8.90;5.07;;;;;;;1.23;64.00;95764.31;5085385;28;20020;-71
2022/02/28 06:13:05;;;;;;;8.38;5.57;;;;;;;1.25;64.82;95769.47;5085729;28;20024;-70
2022/02/28 06:15:31;;;;;;;9.95;6.25;;;;;;;1.37;63.88;95766.91;5084637;28;20020;-72
2022/02/28 06:17:58;;;;;;;9.80;5.80;;;;;;;1.39;64.39;95771.13;5083457;28;20040;-73
2022/02/28 06:20:24;;;;;;;9.45;4.55;;;;;;;1.41;64.30;95763.94;5085168;28;20535;-72
2022/02/28 06:22:49;;;;;;;8.90;4.60;;;;;;;1.48;62.19;95770.44;5084380;28;20032;-72
2022/02/28 06:25:15;;;;;;;10.57;5.68;;;;;;;1.54;61.89;95769.16;5086115;28;20024;-71
2022/02/28 06:27:40;;;;;;;7.50;4.30;;;;;;;1.64;61.63;95773.78;5084800;28;20020;-72
2022/02/28 06:30:07;;;;;;;5.70;4.40;;;;;;;1.65;61.21;95770.16;5088354;28;20024;-72
2022/02/28 06:32:34;;;;;;;7.82;4.25;;;;;;;1.64;61.84;95773.78;5085742;28;20036;-72
2022/02/28 06:35:00;;;;;;;8.75;4.57;;;;;;;1.71;61.54;95773.19;5085012;28;20472;-72
2022/02/28 06:37:25;;;;;;;8.07;5.43;;;;;;;1.65;61.33;95772.81;5084595;28;20380;-71
2022/02/28 06:39:50;;;;;;;8.52;4.97;;;;;;;1.67;61.46;95769.09;5084670;28;20421;-72
2022/02/28 06:42:16;;;;;;;7.45;4.40;;;;;;;1.60;61.55;95773.16;5087336;28;20028;-71
2022/02/28 06:44:42;;;;;;;6.20;4.05;;;;;;;1.63;62.05;95778.19;5088382;28;20114;-71
2022/02/28 06:47:07;;;;;;;6.25;4.13;;;;;;;1.64;61.90;95765.84;5088229;28;20089;-72
2022/02/28 06:49:32;;;;;;;6.78;3.88;;;;;;;1.63;62.92;95769.44;5088536;28;20485;-71
2022/02/28 06:51:58;;;;;;;4.60;3.17;;;;;;;1.68;61.40;95769.94;5089242;28;20068;-71
2022/02/28 06:54:23;;;;;;;4.25;2.70;;;;;;;1.63;62.10;95764.16;5088918;28;20073;-72
2022/02/28 06:56:49;;;;;;;3.35;2.70;;;;;;;1.74;61.84;95769.50;5088234;28;20028;-71
2022/02/28 06:59:14;;;;;;;3.10;2.53;;;;;;;1.77;61.78;95769.28;5089243;28;20024;-72
2022/02/28 07:01:40;;;;;;;3.90;2.92;;;;;;;1.72;62.01;95774.91;5087836;28;20028;-71
2022/02/28 07:04:07;;;;;;;3.45;2.47;;;;;;;1.76;62.43;95770.22;5089272;28;20024;-73
2022/02/28 07:06:33;;;;;;;4.40;2.70;;;;;;;1.81;61.86;95770.72;5087895;28;20036;-71
2022/02/28 07:08:59;;;;;;;6.65;3.08;;;;;;;1.73;62.52;95766.00;5087583;28;20028;-71
2022/02/28 07:11:24;;;;;;;3.47;2.63;;;;;;;1.71;60.86;95769.69;5088401;28;20481;-72
2022/02/28 07:13:50;;;;;;;3.35;2.40;;;;;;;1.80;61.96;95769.03;5088489;28;20031;-71
2022/02/28 07:16:16;;;;;;;5.05;2.78;;;;;;;1.85;60.61;95766.88;5088742;28;20031;-71
2022/02/28 07:18:41;;;;;;;6.03;2.53;;;;;;;1.81;61.68;95772.50;5087708;28;20027;-71
2022/02/28 07:21:06;;;;;;;4.20;2.47;;;;;;;1.83;61.16;95778.53;5089246;28;20157;-71
2022/02/28 07:23:32;;;;;;;4.50;2.70;;;;;;;1.90;61.57;95773.63;5085764;28;20036;-71
2022/02/28 07:25:57;;;;;;;5.30;2.67;;;;;;;1.82;60.21;95784.78;5088985;28;20032;-71
2022/02/28 07:28:23;;;;;;;5.07;3.30;;;;;;;1.82;61.24;95777.69;5087704;28;20419;-72
2022/02/28 07:30:48;;;;;;;4.20;2.65;;;;;;;1.72;60.85;95777.56;5088585;28;20020;-71
2022/02/28 07:33:14;;;;;;;7.47;3.90;;;;;;;1.63;60.36;95787.97;5088190;28;20418;-71
2022/02/28 07:35:39;;;;;;;3.75;2.60;;;;;;;1.52;60.34;95781.63;5086491;28;20372;-72
2022/02/28 07:38:05;;;;;;;5.28;2.63;;;;;;;1.37;59.32;95775.66;5087276;28;20093;-71
2022/02/28 07:40:30;;;;;;;3.08;2.40;;;;;;;1.11;59.42;95786.34;5086873;28;20095;-72
2022/02/28 07:42:55;;;;;;;3.15;2.55;;;;;;;1.06;60.40;95786.66;5088968;28;20043;-71
2022/02/28 07:45:24;;;;;;;3.85;2.38;;;;;;;1.07;60.24;95788.34;5087142;28;20020;-72
2022/02/28 07:47:49;;;;;;;3.60;2.67;;;;;;;1.12;60.36;95788.00;5070558;28;20131;-72
2022/02/28 07:50:15;;;;;;;4.22;2.78;;;;;;;1.13;60.56;95784.41;5087808;28;20394;-71
2022/02/28 07:52:40;;;;;;;4.32;2.80;;;;;;;1.18;60.76;95789.34;5069176;28;20051;-71
2022/02/28 07:55:06;;;;;;;5.28;2.88;;;;;;;1.11;60.38;95795.09;5087562;28;20024;-71
2022/02/28 07:57:31;;;;;;;4.18;2.88;;;;;;;1.12;60.30;95795.94;5086673;28;20484;-72
2022/02/28 07:59:57;;;;;;;4.15;2.30;;;;;;;0.98;60.04;95794.28;5070121;28;20028;-72
2022/02/28 08:02:23;;;;;;;4.35;2.70;;;;;;;1.00;60.49;95797.63;5085128;28;20082;-72
2022/02/28 08:04:48;;;;;;;4.18;2.45;;;;;;;0.86;60.56;95795.97;5086999;28;20028;-71
2022/02/28 08:07:14;;;;;;;3.17;2.50;;;;;;;1.05;61.01;95794.69;5086946;28;20027;-71
2022/02/28 08:09:39;;;;;;;3.92;2.50;;;;;;;1.04;59.69;95796.50;5087423;28;20035;-71
2022/02/28 08:12:05;;;;;;;3.38;2.53;;;;;;;1.11;60.64;95795.09;5087549;28;20034;-72
2022/02/28 08:14:31;;;;;;;3.90;2.95;;;;;;;1.20;61.18;95804.16;5085576;28;20115;-71
2022/02/28 08:16:56;;;;;;;4.93;3.40;;;;;;;1.15;60.93;95808.06;5086669;28;20426;-71
2022/02/28 08:19:21;;;;;;;7.70;3.20;;;;;;;1.22;59.94;95806.69;5086420;28;20031;-72
2022/02/28 08:21:47;;;;;;;4.22;2.40;;;;;;;1.23;59.68;95806.59;5086511;28;20051;-71
2022/02/28 08:24:12;;;;;;;3.20;2.60;;;;;;;1.28;60.11;95803.63;5085002;28;20028;-71
2022/02/28 08:26:38;;;;;;;3.45;2.30;;;;;;;1.30;59.49;95808.78;5086142;28;20403;-73
2022/02/28 08:29:03;;;;;;;3.42;2.42;;;;;;;1.37;59.53;95811.84;5086748;28;20407;-71
2022/02/28 08:31:29;;;;;;;4.22;2.70;;;;;;;1.45;59.88;95805.03;5085718;28;20384;-72
2022/02/28 08:33:55;;;;;;;5.95;2.83;;;;;;;1.63;58.48;95809.94;5087329;28;20028;-71
2022/02/28 08:36:20;;;;;;;4.75;3.17;;;;;;;1.69;59.49;95809.47;5086253;28;20020;-71
2022/02/28 08:38:45;;;;;;;5.28;3.40;;;;;;;1.70;58.17;95813.84;5087431;28;20471;-70
2022/02/28 08:41:11;;;;;;;6.05;3.25;;;;;;;1.77;58.91;95808.94;5086072;28;20027;-71
2022/02/28 08:43:36;;;;;;;4.75;2.95;;;;;;;1.85;58.36;95813.66;5087480;28;20020;-71
2022/02/28 08:46:02;;;;;;;3.88;2.72;;;;;;;1.80;58.17;95811.34;5084730;28;20035;-71
2022/02/28 08:48:28;;;;;;;4.32;2.78;;;;;;;1.85;58.29;95811.84;5087081;28;20070;-72
2022/02/28 08:50:53;;;;;;;4.80;2.90;;;;;;;1.77;57.11;95814.22;5086527;28;20539;-71
2022/02/28 08:53:20;;;;;;;3.35;2.67;;;;;;;1.78;57.64;95813.25;5086908;28;20422;-71
2022/02/28 08:55:46;;;;;;;3.80;2.80;;;;;;;1.70;57.43;95821.75;5085564;28;20513;-72
2022/02/28 08:58:11;;;;;;;4.00;2.60;;;;;;;1.70;57.11;95812.97;5067428;28;20071;-71
2022/02/28 09:00:36;;;;;;;6.40;3.10;;;;;;;1.87;57.43;95827.59;5085887;28;20036;-72
2022/02/28 09:03:06;;;;;;;4.47;3.00;;;;;;;2.00;58.82;95829.34;5085769;28;20111;-71
2022/02/28 09:05:33;;;;;;;3.53;2.50;;;;;;;2.07;57.86;95827.94;5085819;28;20032;-72
2022/02/28 09:07:58;;;;;;;5.43;2.75;;;;;;;2.10;57.45;95833.84;5085799;28;20042;-72
2022/02/28 09:10:24;;;;;;;4.45;2.63;;;;;;;2.08;57.00;95825.16;5086924;28;20024;-71
2022/02/28 09:12:49;;;;;;;4.22;2.53;;;;;;;2.17;57.33;95834.22;5085232;28;20411;-71
2022/02/28 09:15:15;;;;;;;3.72;2.60;;;;;;;2.07;57.79;95828.78;5085719;28;20487;-71
2022/02/28 09:17:40;;;;;;;4.53;2.70;;;;;;;2.08;56.68;95834.94;5086758;28;20028;-71
2022/02/28 09:20:06;;;;;;;3.45;2.90;;;;;;;1.95;57.56;95832.34;5084031;28;20454;-72
2022/02/28 09:22:31;;;;;;;4.13;2.33;;;;;;;1.72;56.67;95826.94;5087020;28;20020;-71
2022/02/28 09:24:57;;;;;;;3.53;2.60;;;;;;;1.91;57.63;95838.81;5085500;28;20055;-71
2022/02/28 09:27:22;;;;;;;5.60;3.88;;;;;;;2.12;57.71;95841.66;5086551;28;20032;-72
2022/02/28 09:29:48;;;;;;;3.38;2.50;;;;;;;1.92;56.94;95841.34;5085965;28;20414;-71
2022/02/28 09:32:13;;;;;;;4.43;2.40;;;;;;;1.96;56.79;95841.97;5086053;28;20016;-72
2022/02/28 09:34:39;;;;;;;3.65;2.38;;;;;;;2.19;57.21;95848.19;5086726;28;20051;-71
2022/02/28 09:37:04;;;;;;;2.75;2.30;;;;;;;2.22;55.51;95847.13;5085055;28;20036;-71
2022/02/28 09:39:29;;;;;;;3.22;2.40;;;;;;;2.25;55.53;95856.63;5087399;28;20029;-71
2022/02/28 09:41:57;;;;;;;3.47;2.60;;;;;;;2.31;56.88;95846.44;5084799;28;20028;-71
2022/02/28 09:44:23;;;;;;;4.85;2.60;;;;;;;2.29;55.97;95850.97;5085420;28;20051;-70
2022/02/28 09:46:48;;;;;;;3.17;2.25;;;;;;;2.45;55.94;95845.38;5084228;28;20494;-72
2022/02/28 09:49:14;;;;;;;3.90;2.45;;;;;;;2.46;54.86;95838.28;5068197;28;20434;-71
2022/02/28 09:51:39;;;;;;;3.00;2.40;;;;;;;2.67;56.74;95846.41;5086111;28;20020;-71
2022/02/28 09:54:05;;;;;;;3.95;2.75;;;;;;;2.76;55.40;95854.63;5085215;28;20035;-72
2022/02/28 09:56:31;;;;;;;4.22;2.40;;;;;;;2.78;56.60;95852.66;5086526;28;20020;-72
2022/02/28 09:58:56;;;;;;;3.20;2.10;;;;;;;2.76;53.13;95855.44;5084088;28;20046;-71
2022/02/28 10:01:22;;;;;;;3.92;2.53;;;;;;;3.01;55.04;95848.25;5086464;28;20048;-71
2022/02/28 10:03:47;;;;;;;3.10;2.50;;;;;;;3.15;54.42;95846.31;5085440;28;20020;-72
2022/02/28 10:06:14;;;;;;;2.92;2.10;;;;;;;3.11;53.81;95836.94;5086072;28;20020;-71
2022/02/28 10:08:44;;;;;;;3.22;2.20;;;;;;;3.30;54.84;95834.50;5085717;28;20502;-71
2022/02/28 10:11:33;;;;;;;4.18;2.40;;;;;;;3.41;54.74;95827.50;5050651;28;20024;-70
2022/02/28 10:14:00;;;;;;;3.50;2.20;;;;;;;3.35;55.02;95844.75;5086247;28;20035;-71
2022/02/28 10:16:35;;;;;;;4.05;2.60;;;;;;;3.48;54.61;95838.47;5084760;28;20466;-71
2022/02/28 10:19:01;;;;;;;3.65;2.28;;;;;;;3.34;53.64;95837.75;5088554;28;20032;-71
2022/02/28 10:21:43;;;;;;;3.28;2.40;;;;;;;3.18;52.94;95828.38;5089184;28;20081;-71
2022/02/28 10:24:09;;;;;;;2.40;2.03;;;;;;;2.92;54.00;95844.50;5087556;28;20035;-71
2022/02/28 10:26:42;;;;;;;2.63;2.10;;;;;;;2.62;54.85;95837.97;5089927;28;20486;-72
2022/02/28 10:29:08;;;;;;;3.67;2.28;;;;;;;2.59;54.35;95827.59;5088374;28;20386;-71
2022/02/28 10:31:35;;;;;;;2.90;2.05;;;;;;;2.62;54.93;95845.91;5090572;28;20024;-71
2022/02/28 10:34:20;;;;;;;3.47;2.20;;;;;;;2.41;56.89;95836.00;5070223;28;20453;-71
2022/02/28 10:36:57;;;;;;;3.20;2.10;;;;;;;2.56;55.51;95826.00;5089658;28;20123;-72
2022/02/28 10:39:33;;;;;;;4.22;2.10;;;;;;;2.51;55.50;95828.19;5089520;28;20082;-71
2022/02/28 10:42:18;;;;;;;2.60;1.90;;;;;;;2.38;53.97;95833.56;5088783;28;20081;-70
2022/02/28 10:44:44;;;;;;;2.80;2.15;;;;;;;2.18;57.31;95835.06;5089824;28;20043;-71
2022/02/28 10:47:11;;;;;;;6.75;2.50;;;;;;;2.33;56.34;95806.59;5087214;28;20142;-71
2022/02/28 10:49:38;;;;;;;2.60;2.03;;;;;;;2.06;56.90;95808.56;5071498;28;20036;-71
2022/02/28 10:52:08;;;;;;;5.38;2.35;;;;;;;2.19;56.27;95820.88;5087577;28;20395;-72
2022/02/28 10:54:40;;;;;;;3.65;2.17;;;;;;;2.15;57.76;95814.97;5070459;28;20051;-71
2022/02/28 10:57:07;;;;;;;6.07;2.78;;;;;;;2.41;56.54;95819.25;5089405;28;20064;-72
2022/02/28 10:59:55;;;;;;;4.70;2.65;;;;;;;2.15;56.48;95820.25;5087786;28;20032;-73
2022/02/28 11:02:27;;;;;;;3.28;2.47;;;;;;;2.02;56.52;95812.41;5089249;28;20398;-73
2022/02/28 11:05:09;;;;;;;2.42;2.05;;;;;;;1.95;56.94;95819.13;5088855;28;20035;-74
2022/02/28 11:07:42;;;;;;;3.55;2.40;;;;;;;2.02;55.30;95814.19;5087102;28;20034;-72
2022/02/28 11:10:09;;;;;;;6.32;2.30;;;;;;;2.03;56.99;95816.72;5087775;28;20034;-72
2022/02/28 11:12:35;;;;;;;3.55;2.15;;;;;;;2.14;56.20;95818.59;5088077;28;20036;-72
2022/02/28 11:15:04;;;;;;;4.15;2.28;;;;;;;2.18;56.49;95817.38;5089469;28;20540;-72
2022/02/28 11:17:31;;;;;;;3.33;2.15;;;;;;;2.21;56.81;95818.94;5086515;28;20032;-72
2022/02/28 11:19:59;;;;;;;2.55;2.13;;;;;;;2.25;55.22;95823.06;5088819;28;20031;-71
2022/02/28 11:22:24;;;;;;;3.20;2.25;;;;;;;2.41;56.45;95816.59;5088441;28;20032;-72
2022/02/28 11:24:53;;;;;;;3.45;2.70;;;;;;;2.58;55.87;95815.31;5087904;28;20020;-74
2022/02/28 11:27:18;;;;;;;4.85;2.40;;;;;;;2.68;54.92;95816.28;5087652;28;20449;-72
2022/02/28 11:29:49;;;;;;;3.75;2.40;;;;;;;2.72;54.50;95807.13;5086226;28;20036;-72
2022/02/28 11:32:14;;;;;;;3.72;2.38;;;;;;;2.63;54.37;95804.38;5087738;28;20051;-72
2022/02/28 11:34:40;;;;;;;4.82;2.40;;;;;;;2.76;54.54;95797.16;5087708;28;20039;-73
2022/02/28 11:37:05;;;;;;;4.10;2.33;;;;;;;2.61;54.08;95793.06;5088616;28;20020;-70